createdAt,value
2018-07-14T00:08:01.031Z,59.2
2018-07-14T00:24:49.344Z,59.6
2018-07-14T00:41:37.929Z,59.2
2018-07-14T00:58:26.581Z,59.2
2018-07-14T01:15:15.258Z,59.6
2018-07-14T01:32:03.353Z,60.0
2018-07-14T01:48:51.420Z,60.0
2018-07-14T02:05:39.654Z,59.6
2018-07-14T02:22:27.967Z,59.6
2018-07-14T02:39:16.046Z,59.6
2018-07-14T02:56:03.621Z,60.0
2018-07-14T03:12:51.360Z,60.0
2018-07-14T03:29:39.417Z,59.2
2018-07-14T03:46:27.127Z,59.6
2018-07-14T04:03:15.254Z,59.2
2018-07-14T04:20:03.302Z,59.2
2018-07-14T04:36:51.082Z,59.2
2018-07-14T04:43:34.060Z,59.2
2018-07-14T04:50:16.801Z,60.4
2018-07-14T05:00:20.784Z,60.8
2018-07-14T05:15:26.994Z,60.8
2018-07-14T05:25:31.977Z,59.6
2018-07-14T05:35:37.309Z,58.4
2018-07-14T05:52:26.616Z,56.8
2018-07-14T06:07:34.261Z,58.0
2018-07-14T06:24:22.315Z,58.4
2018-07-14T06:37:49.225Z,58.0
2018-07-14T06:54:38.421Z,57.6
2018-07-14T07:11:27.557Z,57.6
2018-07-14T07:28:16.692Z,58.0
2018-07-14T07:45:05.325Z,58.4
2018-07-14T08:01:54.351Z,57.6
2018-07-14T08:13:41.071Z,57.2
2018-07-14T08:23:46.960Z,56.4
2018-07-14T08:40:36.322Z,57.2
2018-07-14T08:57:25.735Z,56.8
2018-07-14T09:14:15.672Z,56.4
2018-07-14T09:31:05.547Z,56.0
2018-07-14T09:47:55.733Z,55.6
2018-07-14T10:04:45.920Z,55.6
2018-07-14T10:21:36.486Z,55.6
2018-07-14T10:38:27.191Z,55.2
2018-07-14T10:55:18.181Z,54.8
2018-07-14T11:12:09.351Z,54.8
2018-07-14T11:29:00.917Z,54.4
2018-07-14T11:45:52.122Z,54.4
2018-07-14T12:02:43.774Z,54.0
2018-07-14T12:19:35.639Z,53.2
2018-07-14T12:36:27.597Z,53.2
2018-07-14T12:53:19.699Z,52.8
2018-07-14T13:10:12.143Z,53.2
2018-07-14T13:27:04.759Z,52.4
2018-07-14T13:43:57.659Z,50.8
2018-07-14T14:00:50.075Z,50.8
2018-07-14T14:17:49.133Z,49.6
2018-07-14T14:34:35.895Z,50.0
2018-07-14T14:51:29.175Z,49.6
2018-07-14T15:08:23.014Z,48.4
2018-07-14T15:25:15.499Z,48.8
2018-07-14T15:42:08.401Z,48.0
2018-07-14T15:59:01.346Z,47.2
2018-07-14T16:12:31.715Z,49.6
2018-07-14T16:29:24.890Z,48.4
2018-07-14T16:46:17.963Z,46.4
2018-07-14T17:03:11.084Z,46.4
2018-07-14T17:20:04.119Z,46.4
2018-07-14T17:36:57.090Z,45.6
2018-07-14T17:53:49.801Z,45.2
2018-07-14T18:10:42.226Z,45.2
2018-07-14T18:27:34.526Z,45.6
2018-07-14T18:44:26.599Z,46.0
2018-07-14T19:01:18.695Z,46.8
2018-07-14T19:18:10.444Z,47.2
2018-07-14T19:35:02.212Z,48.0
2018-07-14T19:51:53.869Z,48.8
2018-07-14T20:07:04.196Z,48.4
2018-07-14T20:23:54.753Z,49.6
2018-07-14T20:40:45.129Z,50.4
2018-07-14T20:57:35.314Z,50.8
2018-07-14T21:14:25.096Z,52.0
2018-07-14T21:31:14.958Z,52.0
2018-07-14T21:48:04.114Z,53.2
2018-07-14T22:04:53.304Z,52.4
2018-07-14T22:21:42.396Z,53.2
2018-07-14T22:38:31.897Z,53.2
2018-07-14T22:55:21.692Z,53.6
2018-07-14T23:12:11.813Z,52.8
2018-07-14T23:29:02.120Z,52.4
2018-07-14T23:45:52.158Z,52.8
